Time;durP1;ratioP1;P1;durP2;ratioP2;P2;SDS_P1;SDS_P2;PMS_P1;PMS_P2;Temp;Humidity;BMP_temperature;BMP_pressure;BME280_temperature;BME280_humidity;BME280_pressure;Samples;Min_cycle;Max_cycle;Signal;HPM_P1;HPM_P2
2022/02/18 00:01:55;;;;;;;16.73;2.75;;;11.00;94.00;;;;;;4994981;28;20026;-85
2022/02/18 00:04:21;;;;;;;17.17;3.10;;;10.90;94.30;;;;;;4978310;28;20506;-89
2022/02/18 00:06:46;;;;;;;17.98;2.35;;;11.00;94.20;;;;;;4998972;28;20007;-86
2022/02/18 00:09:12;;;;;;;14.15;2.38;;;11.00;94.20;;;;;;4999676;28;20026;-86
2022/02/18 00:11:37;;;;;;;18.48;2.55;;;11.00;94.20;;;;;;4986207;28;20019;-90
2022/02/18 00:14:03;;;;;;;15.65;2.15;;;11.00;94.10;;;;;;4995209;28;20030;-87
2022/02/18 00:16:29;;;;;;;17.27;2.38;;;11.00;94.10;;;;;;4978139;28;20033;-87
2022/02/18 00:18:55;;;;;;;12.32;2.33;;;11.00;94.20;;;;;;4976848;28;20133;-86
2022/02/18 00:21:20;;;;;;;17.40;2.72;;;11.00;94.20;;;;;;4977778;28;20464;-87
2022/02/18 00:23:46;;;;;;;11.98;2.10;;;11.00;94.30;;;;;;4977489;28;20233;-82
2022/02/18 00:26:11;;;;;;;16.30;3.05;;;11.00;94.40;;;;;;4977428;28;20113;-87
2022/02/18 00:28:37;;;;;;;21.75;3.03;;;10.90;94.50;;;;;;4977504;28;20541;-82
2022/02/18 00:31:03;;;;;;;14.40;2.20;;;11.00;94.50;;;;;;4994085;28;20030;-86
2022/02/18 00:33:29;;;;;;;20.08;2.63;;;10.90;94.50;;;;;;4976678;28;20033;-82
2022/02/18 00:35:54;;;;;;;17.40;2.60;;;11.00;94.30;;;;;;4994764;28;20033;-85
2022/02/18 00:38:20;;;;;;;17.42;3.10;;;11.00;94.40;;;;;;4977295;28;20035;-84
2022/02/18 00:40:46;;;;;;;11.38;1.80;;;11.00;94.30;;;;;;4977251;28;20027;-82
2022/02/18 00:43:12;;;;;;;12.45;2.30;;;11.00;94.10;;;;;;4977406;28;20037;-83
2022/02/18 00:45:38;;;;;;;18.55;2.90;;;10.90;94.10;;;;;;4994131;28;20027;-83
2022/02/18 00:48:04;;;;;;;20.95;2.88;;;11.00;94.30;;;;;;4976604;28;20037;-82
2022/02/18 00:50:29;;;;;;;14.15;2.33;;;11.00;94.30;;;;;;4976821;28;20035;-82
2022/02/18 00:52:55;;;;;;;19.05;2.65;;;11.00;94.30;;;;;;4976842;28;20031;-83
2022/02/18 00:55:21;;;;;;;15.65;2.95;;;11.00;94.70;;;;;;4977604;28;20080;-82
2022/02/18 00:57:47;;;;;;;13.75;2.72;;;11.00;94.50;;;;;;4977200;28;20050;-81
2022/02/18 01:00:15;;;;;;;8.68;1.70;;;11.00;94.50;;;;;;4977145;28;20037;-82
2022/02/18 01:02:43;;;;;;;11.90;2.20;;;11.00;94.50;;;;;;4977068;28;20026;-85
2022/02/18 01:05:10;;;;;;;13.18;2.10;;;11.00;94.50;;;;;;4976709;28;20030;-83
2022/02/18 01:07:36;;;;;;;12.60;3.00;;;11.00;94.50;;;;;;4976823;28;20109;-83
2022/02/18 01:10:04;;;;;;;14.55;2.53;;;11.00;94.30;;;;;;4976615;28;20077;-82
2022/02/18 01:12:30;;;;;;;17.08;2.70;;;10.90;94.40;;;;;;4976890;28;20037;-80
2022/02/18 01:14:56;;;;;;;14.25;2.83;;;11.00;94.60;;;;;;4976448;28;20026;-80
2022/02/18 01:17:21;;;;;;;10.85;2.08;;;10.90;94.50;;;;;;4977537;28;20027;-84
2022/02/18 01:19:47;;;;;;;15.85;2.50;;;10.90;94.60;;;;;;4977192;28;20046;-84
2022/02/18 01:22:12;;;;;;;20.05;2.85;;;10.90;94.70;;;;;;4976909;28;20054;-83
2022/02/18 01:24:38;;;;;;;12.85;2.10;;;10.90;94.60;;;;;;4977103;28;20117;-83
2022/02/18 01:27:04;;;;;;;16.65;2.35;;;10.90;94.60;;;;;;4976994;28;20030;-83
2022/02/18 01:29:30;;;;;;;10.18;1.90;;;10.90;94.60;;;;;;4977266;28;20034;-84
2022/02/18 01:31:55;;;;;;;12.50;2.30;;;10.90;94.80;;;;;;4976916;28;20113;-83
2022/02/18 01:34:21;;;;;;;14.68;2.10;;;10.90;94.80;;;;;;4977195;28;20033;-84
2022/02/18 01:36:47;;;;;;;17.80;2.63;;;10.90;95.00;;;;;;4977262;28;20118;-83
2022/02/18 01:39:12;;;;;;;12.75;2.50;;;10.80;95.10;;;;;;4976667;28;20033;-83
2022/02/18 01:41:38;;;;;;;15.73;1.92;;;10.80;95.20;;;;;;4977149;28;20450;-83
2022/02/18 01:44:05;;;;;;;22.95;2.95;;;10.80;95.30;;;;;;4976744;28;20081;-83
2022/02/18 01:46:31;;;;;;;18.65;2.60;;;10.80;95.20;;;;;;4996328;28;20380;-83
2022/02/18 01:48:59;;;;;;;17.58;2.67;;;10.80;95.30;;;;;;4980448;28;20122;-83
2022/02/18 01:51:25;;;;;;;14.35;2.58;;;10.80;95.30;;;;;;4980920;28;20125;-82
2022/02/18 01:53:52;;;;;;;13.52;2.15;;;10.80;95.30;;;;;;4997764;28;20186;-83
2022/02/18 01:56:20;;;;;;;14.75;2.20;;;10.80;95.40;;;;;;4981072;28;20098;-85
2022/02/18 01:58:46;;;;;;;11.82;2.22;;;10.80;95.40;;;;;;4998140;28;20126;-85
2022/02/18 02:01:13;;;;;;;12.70;2.08;;;10.80;95.40;;;;;;4997289;28;20105;-85
2022/02/18 02:03:40;;;;;;;13.23;1.80;;;10.80;95.40;;;;;;4980567;28;20034;-85
2022/02/18 02:06:07;;;;;;;17.50;2.25;;;10.80;95.50;;;;;;4980316;28;20057;-85
2022/02/18 02:08:36;;;;;;;14.25;2.10;;;10.80;95.60;;;;;;4980675;28;20022;-84
2022/02/18 02:11:03;;;;;;;18.98;2.30;;;10.70;95.70;;;;;;4980127;28;20077;-84
2022/02/18 02:13:32;;;;;;;17.95;1.88;;;10.80;95.60;;;;;;4980536;28;20446;-84
2022/02/18 02:15:58;;;;;;;15.05;1.98;;;10.80;95.60;;;;;;4980084;28;20033;-84
2022/02/18 02:18:23;;;;;;;16.33;2.40;;;10.80;95.70;;;;;;4997699;28;20027;-82
2022/02/18 02:20:49;;;;;;;15.40;2.22;;;10.80;95.80;;;;;;4997620;28;20094;-85
2022/02/18 02:23:16;;;;;;;11.93;2.20;;;10.80;95.80;;;;;;4979857;28;20031;-84
2022/02/18 02:25:42;;;;;;;13.05;2.33;;;10.80;95.80;;;;;;4980342;28;20026;-85
2022/02/18 02:28:07;;;;;;;15.30;2.22;;;10.80;95.80;;;;;;4997151;28;20031;-84
2022/02/18 02:30:33;;;;;;;12.75;2.03;;;10.80;95.90;;;;;;4997725;28;20026;-84
2022/02/18 02:32:59;;;;;;;10.73;2.00;;;10.80;95.90;;;;;;4980497;28;20427;-86
2022/02/18 02:35:24;;;;;;;13.93;2.60;;;10.80;95.90;;;;;;4980388;28;20165;-83
2022/02/18 02:37:50;;;;;;;11.05;2.28;;;10.80;95.90;;;;;;4980160;28;20058;-83
2022/02/18 02:40:18;;;;;;;10.43;2.03;;;10.80;96.00;;;;;;4979751;28;20070;-83
2022/02/18 02:42:45;;;;;;;15.60;2.13;;;10.80;96.10;;;;;;4980024;28;20041;-83
2022/02/18 02:45:12;;;;;;;11.15;1.75;;;10.70;96.20;;;;;;4979131;28;20038;-84
2022/02/18 02:47:46;;;;;;;10.45;2.55;;;10.70;96.30;;;;;;4997155;28;20049;-83
2022/02/18 02:50:13;;;;;;;10.52;2.20;;;10.70;96.40;;;;;;4979625;28;20121;-83
2022/02/18 02:52:38;;;;;;;12.00;2.03;;;10.70;96.50;;;;;;4979888;28;20034;-83
2022/02/18 02:55:07;;;;;;;9.95;1.77;;;10.70;96.60;;;;;;4996564;28;20033;-84
2022/02/18 02:57:33;;;;;;;10.60;2.10;;;10.70;96.60;;;;;;4979256;28;20049;-83
2022/02/18 02:59:58;;;;;;;11.52;2.00;;;10.70;96.70;;;;;;4979130;28;20468;-83
2022/02/18 03:02:24;;;;;;;9.23;1.98;;;10.70;96.70;;;;;;4979806;28;20030;-83
2022/02/18 03:04:50;;;;;;;13.73;2.17;;;10.70;96.80;;;;;;4996788;28;20095;-83
2022/02/18 03:07:15;;;;;;;11.23;2.08;;;10.70;96.90;;;;;;4978865;28;20495;-85
2022/02/18 03:09:41;;;;;;;15.95;2.08;;;10.70;96.90;;;;;;4979413;28;20026;-85
2022/02/18 03:12:07;;;;;;;10.75;2.17;;;10.70;97.00;;;;;;4979352;28;20037;-84
2022/02/18 03:14:33;;;;;;;13.68;1.55;;;10.70;96.90;;;;;;4996897;28;20034;-85
2022/02/18 03:16:58;;;;;;;10.43;2.00;;;10.70;97.10;;;;;;4996229;28;20026;-85
2022/02/18 03:19:24;;;;;;;10.75;1.45;;;10.60;97.30;;;;;;4979052;28;20053;-84
2022/02/18 03:21:51;;;;;;;12.85;1.83;;;10.60;97.30;;;;;;4979140;28;20039;-84
2022/02/18 03:24:18;;;;;;;10.80;2.03;;;10.60;97.30;;;;;;4996075;28;20027;-85
2022/02/18 03:26:44;;;;;;;14.00;1.92;;;10.60;97.20;;;;;;4979479;28;20480;-83
2022/02/18 03:29:10;;;;;;;7.32;1.50;;;10.60;97.40;;;;;;4978491;28;20026;-84
2022/02/18 03:31:36;;;;;;;14.18;2.00;;;10.60;97.40;;;;;;4979154;28;20030;-84
2022/02/18 03:34:02;;;;;;;12.93;1.80;;;10.60;97.50;;;;;;4995743;28;20026;-84
2022/02/18 03:36:27;;;;;;;10.15;1.80;;;10.60;97.60;;;;;;4979215;28;20077;-84
2022/02/18 03:38:55;;;;;;;12.30;1.90;;;10.60;97.50;;;;;;4979111;28;20030;-84
2022/02/18 03:41:21;;;;;;;10.25;1.70;;;10.60;97.60;;;;;;4978447;28;20065;-83
2022/02/18 03:43:46;;;;;;;7.78;1.40;;;10.50;97.60;;;;;;4978790;28;20125;-83
2022/02/18 03:46:12;;;;;;;7.32;1.27;;;10.50;97.50;;;;;;4978361;28;20117;-84
2022/02/18 03:48:38;;;;;;;13.38;2.05;;;10.50;97.60;;;;;;4978752;28;20387;-84
2022/02/18 03:51:04;;;;;;;12.07;1.67;;;10.60;97.50;;;;;;4978393;28;20031;-83
2022/02/18 03:53:29;;;;;;;8.60;1.65;;;10.60;97.60;;;;;;4978684;28;20058;-84
2022/02/18 03:55:59;;;;;;;6.45;2.00;;;10.60;97.60;;;;;;4978725;28;20049;-85
2022/02/18 03:58:25;;;;;;;10.32;1.67;;;10.60;97.60;;;;;;4996328;28;20065;-85
2022/02/18 04:00:51;;;;;;;12.05;2.20;;;10.60;97.60;;;;;;4978649;28;20064;-86
2022/02/18 04:03:17;;;;;;;11.95;1.98;;;10.60;97.50;;;;;;4978200;28;20452;-86
2022/02/18 04:05:42;;;;;;;13.70;1.90;;;10.60;97.50;;;;;;4978568;28;20027;-85
2022/02/18 04:08:08;;;;;;;11.00;1.65;;;10.60;97.40;;;;;;4994726;28;20022;-85
2022/02/18 04:10:34;;;;;;;12.60;1.63;;;10.60;97.40;;;;;;4978227;28;20479;-85
2022/02/18 04:13:00;;;;;;;6.85;1.60;;;10.60;97.30;;;;;;4978027;28;20473;-84
2022/02/18 04:15:25;;;;;;;13.95;2.30;;;10.60;97.30;;;;;;4978513;28;20030;-85
2022/02/18 04:17:51;;;;;;;11.65;1.80;;;10.60;97.50;;;;;;4995604;28;20061;-85
2022/02/18 04:20:17;;;;;;;9.93;1.38;;;10.60;97.40;;;;;;4995370;28;20145;-87
2022/02/18 04:22:42;;;;;;;7.40;1.33;;;10.50;97.50;;;;;;4978261;28;20037;-84
2022/02/18 04:25:09;;;;;;;11.07;1.77;;;10.50;97.60;;;;;;4977417;28;20555;-84
2022/02/18 04:27:35;;;;;;;12.15;1.38;;;10.50;97.70;;;;;;4978147;28;20126;-84
2022/02/18 04:30:02;;;;;;;9.93;1.98;;;10.50;97.70;;;;;;4977671;28;20033;-84
2022/02/18 04:32:27;;;;;;;9.15;1.40;;;10.60;97.70;;;;;;4977909;28;20477;-84
2022/02/18 04:34:53;;;;;;;11.35;2.05;;;10.60;97.70;;;;;;4995114;28;20029;-85
2022/02/18 04:37:18;;;;;;;8.95;1.70;;;10.60;97.70;;;;;;4977494;28;20054;-84
2022/02/18 04:39:44;;;;;;;9.10;1.33;;;10.60;97.80;;;;;;4977776;28;20026;-84
2022/02/18 04:42:10;;;;;;;7.63;1.85;;;10.60;97.70;;;;;;4977464;28;20127;-84
2022/02/18 04:44:35;;;;;;;11.50;2.05;;;10.60;97.80;;;;;;4977879;28;20037;-84
2022/02/18 04:47:01;;;;;;;8.95;1.50;;;10.60;97.80;;;;;;4994443;28;20030;-82
2022/02/18 04:49:26;;;;;;;11.05;1.42;;;10.60;97.90;;;;;;4995142;28;20093;-86
2022/02/18 04:51:55;;;;;;;12.30;1.63;;;10.60;97.90;;;;;;4977793;28;20045;-86
2022/02/18 04:54:22;;;;;;;11.88;1.92;;;10.60;98.10;;;;;;4977372;28;20310;-87
2022/02/18 04:56:48;;;;;;;10.50;1.63;;;10.60;98.10;;;;;;4977592;28;20027;-87
2022/02/18 04:59:15;;;;;;;10.57;1.50;;;10.60;98.00;;;;;;4976763;28;20125;-87
2022/02/18 05:01:41;;;;;;;12.45;1.40;;;10.60;98.10;;;;;;4977717;28;20061;-88
2022/02/18 05:04:07;;;;;;;7.28;1.48;;;10.60;98.10;;;;;;4994345;28;20034;-86
2022/02/18 05:06:32;;;;;;;10.63;1.70;;;10.60;98.20;;;;;;4994849;28;20026;-86
2022/02/18 05:08:58;;;;;;;10.38;1.70;;;10.60;98.40;;;;;;4977526;28;20057;-86
2022/02/18 05:11:23;;;;;;;11.95;1.70;;;10.60;98.50;;;;;;4977102;28;20041;-86
2022/02/18 05:13:49;;;;;;;7.40;1.80;;;10.60;98.50;;;;;;4994685;28;20378;-86
2022/02/18 05:16:15;;;;;;;11.25;1.85;;;10.60;98.50;;;;;;4976908;28;20023;-86
2022/02/18 05:18:40;;;;;;;12.48;2.15;;;10.60;98.40;;;;;;4994571;28;20026;-86
2022/02/18 05:21:06;;;;;;;8.90;1.70;;;10.60;98.50;;;;;;4976852;28;20045;-85
2022/02/18 05:23:32;;;;;;;8.57;1.50;;;10.60;98.40;;;;;;4977342;28;20065;-84
2022/02/18 05:25:58;;;;;;;11.63;1.98;;;10.60;98.40;;;;;;4977158;28;20062;-88
2022/02/18 05:28:23;;;;;;;8.02;1.85;;;10.60;98.50;;;;;;4994308;28;20435;-88
2022/02/18 05:30:49;;;;;;;11.77;2.03;;;10.70;98.50;;;;;;4977331;28;20033;-88
2022/02/18 05:33:15;;;;;;;8.15;1.58;;;10.60;98.50;;;;;;4976820;28;20391;-88
2022/02/18 05:35:41;;;;;;;11.88;1.88;;;10.70;98.40;;;;;;4977412;28;20482;-86
2022/02/18 05:38:07;;;;;;;11.52;1.83;;;10.70;98.40;;;;;;4994200;28;20037;-86
2022/02/18 05:40:33;;;;;;;8.27;1.60;;;10.70;98.40;;;;;;4977043;28;20454;-87
2022/02/18 05:42:58;;;;;;;9.45;1.60;;;10.70;98.40;;;;;;4976941;28;20034;-86
2022/02/18 05:45:24;;;;;;;12.35;2.33;;;10.70;98.50;;;;;;4976306;28;20043;-83
2022/02/18 05:47:54;;;;;;;12.95;2.50;;;10.70;98.40;;;;;;4976918;28;20058;-84
2022/02/18 05:50:19;;;;;;;12.90;1.70;;;10.70;98.50;;;;;;4976769;28;20039;-84
2022/02/18 05:52:46;;;;;;;10.48;1.60;;;10.70;98.40;;;;;;4977116;28;20084;-84
2022/02/18 05:55:12;;;;;;;11.98;1.77;;;10.70;98.50;;;;;;4976467;28;20030;-83
2022/02/18 05:57:38;;;;;;;10.43;1.80;;;10.70;98.50;;;;;;4994212;28;20041;-83
2022/02/18 06:00:08;;;;;;;9.38;1.60;;;10.60;98.60;;;;;;4977076;28;20026;-83
2022/02/18 06:02:34;;;;;;;8.75;1.48;;;10.60;98.60;;;;;;4994116;28;20026;-84
2022/02/18 06:05:01;;;;;;;11.32;2.83;;;10.60;98.60;;;;;;4976705;28;20463;-84
2022/02/18 06:07:27;;;;;;;11.15;1.95;;;10.70;98.60;;;;;;4976456;28;20541;-84
2022/02/18 06:09:53;;;;;;;10.63;2.05;;;10.70;98.60;;;;;;4976720;28;20030;-84
2022/02/18 06:12:18;;;;;;;16.25;2.10;;;10.70;98.60;;;;;;4976447;28;20117;-84
2022/02/18 06:14:44;;;;;;;11.85;2.40;;;10.70;98.70;;;;;;4976956;28;20098;-84
2022/02/18 06:17:10;;;;;;;11.77;1.67;;;10.70;99.20;;;;;;4976124;28;20034;-84
2022/02/18 06:19:36;;;;;;;11.15;1.90;;;10.70;99.00;;;;;;4976373;28;20046;-84
2022/02/18 06:22:02;;;;;;;14.55;2.00;;;10.70;99.20;;;;;;4976318;28;20093;-86
2022/02/18 06:24:27;;;;;;;9.27;1.77;;;10.70;99.30;;;;;;4976187;28;20041;-86
2022/02/18 06:26:53;;;;;;;12.48;1.80;;;10.70;99.50;;;;;;4976682;28;20081;-86
2022/02/18 06:29:18;;;;;;;9.85;2.33;;;10.70;99.70;;;;;;4993455;28;20137;-84
2022/02/18 06:31:44;;;;;;;12.00;1.65;;;10.70;99.90;;;;;;4977038;28;20494;-85
2022/02/18 06:34:09;;;;;;;13.55;1.58;;;10.70;99.90;;;;;;4979772;28;20030;-85
2022/02/18 06:36:35;;;;;;;8.00;1.52;;;10.70;99.90;;;;;;4980156;28;20026;-85
2022/02/18 06:39:01;;;;;;;13.23;1.75;;;10.70;99.90;;;;;;4980130;28;20129;-86
2022/02/18 06:41:27;;;;;;;9.82;1.90;;;10.70;99.90;;;;;;4996780;28;20033;-86
2022/02/18 06:43:53;;;;;;;15.57;1.80;;;10.70;99.90;;;;;;4980032;28;20037;-85
2022/02/18 06:46:18;;;;;;;8.40;1.88;;;10.70;99.90;;;;;;4979484;28;20026;-82
2022/02/18 06:48:44;;;;;;;11.80;1.88;;;10.70;99.90;;;;;;4979842;28;20031;-82
2022/02/18 06:51:10;;;;;;;14.30;2.13;;;10.80;99.90;;;;;;4996651;28;20049;-81
2022/02/18 06:53:35;;;;;;;12.75;2.20;;;10.80;99.90;;;;;;4979928;28;20034;-83
2022/02/18 06:56:01;;;;;;;10.00;1.60;;;10.80;99.90;;;;;;4980031;28;20473;-84
2022/02/18 06:58:27;;;;;;;6.55;1.63;;;10.80;99.90;;;;;;4979126;28;20527;-84
2022/02/18 07:00:53;;;;;;;10.07;1.83;;;10.80;99.90;;;;;;4996740;28;20522;-84
2022/02/18 07:03:20;;;;;;;10.63;1.52;;;10.80;99.90;;;;;;4979179;28;20472;-84
2022/02/18 07:05:46;;;;;;;6.47;1.10;;;10.90;99.90;;;;;;4979618;28;20490;-84
2022/02/18 07:08:12;;;;;;;10.73;1.63;;;10.80;99.90;;;;;;4979164;28;20423;-83
2022/02/18 07:10:38;;;;;;;13.13;1.80;;;10.90;99.90;;;;;;4979720;28;20061;-84
2022/02/18 07:13:04;;;;;;;9.25;1.98;;;10.90;99.90;;;;;;4979558;28;20456;-83
2022/02/18 07:15:29;;;;;;;8.07;2.00;;;10.90;99.90;;;;;;4996036;28;20101;-85
2022/02/18 07:17:55;;;;;;;7.97;1.40;;;10.90;99.90;;;;;;4979083;28;20022;-84
2022/02/18 07:20:22;;;;;;;13.88;1.30;;;10.90;99.90;;;;;;4975364;28;20055;-84
2022/02/18 07:22:48;;;;;;;7.55;1.50;;;10.90;99.90;;;;;;4977306;28;20031;-85
2022/02/18 07:25:15;;;;;;;6.63;1.55;;;10.90;99.90;;;;;;4975821;28;20081;-86
2022/02/18 07:27:41;;;;;;;9.63;1.50;;;10.90;99.90;;;;;;4976365;28;20457;-87
2022/02/18 07:30:07;;;;;;;9.82;1.50;;;10.90;99.90;;;;;;4975728;28;20460;-87
2022/02/18 07:32:33;;;;;;;10.68;1.42;;;11.00;99.90;;;;;;4975130;28;20051;-84
2022/02/18 07:34:59;;;;;;;6.70;1.35;;;11.00;99.90;;;;;;4975976;28;20045;-86
2022/02/18 07:37:25;;;;;;;9.80;1.67;;;11.00;99.90;;;;;;4975244;28;20035;-86
2022/02/18 07:39:50;;;;;;;12.27;1.95;;;10.90;99.90;;;;;;4975860;28;20523;-88
2022/02/18 07:42:16;;;;;;;12.30;1.90;;;10.90;99.90;;;;;;4975477;28;20031;-88
2022/02/18 07:44:42;;;;;;;7.45;1.50;;;10.90;99.90;;;;;;4974670;28;20027;-84
2022/02/18 07:47:08;;;;;;;10.50;1.67;;;10.90;99.90;;;;;;4975645;28;20030;-85
2022/02/18 07:49:33;;;;;;;13.10;2.20;;;10.80;99.90;;;;;;4974821;28;20026;-85
2022/02/18 07:51:59;;;;;;;4.82;1.30;;;10.90;99.90;;;;;;4975480;28;20062;-84
2022/02/18 07:54:25;;;;;;;8.80;1.30;;;10.90;99.90;;;;;;4975055;28;20065;-85
2022/02/18 07:56:50;;;;;;;5.93;1.27;;;10.90;99.90;;;;;;4975382;28;20530;-83
2022/02/18 07:59:16;;;;;;;8.35;1.42;;;10.90;99.90;;;;;;4974787;28;20027;-83
2022/02/18 08:01:42;;;;;;;8.70;1.60;;;11.00;99.90;;;;;;4975234;28;20043;-85
2022/02/18 08:04:08;;;;;;;5.70;1.13;;;11.00;99.90;;;;;;4976435;28;20030;-85
2022/02/18 08:06:33;;;;;;;6.28;1.50;;;11.00;99.90;;;;;;4974996;28;20039;-84
2022/02/18 08:09:01;;;;;;;4.03;0.98;;;11.10;99.90;;;;;;4975193;28;20055;-84
2022/02/18 08:11:26;;;;;;;7.05;1.00;;;11.10;99.90;;;;;;4975731;28;20034;-86
2022/02/18 08:13:53;;;;;;;1.95;1.27;;;11.10;99.90;;;;;;4975336;28;20464;-86
2022/02/18 08:16:19;;;;;;;4.70;1.02;;;11.20;99.90;;;;;;4975545;28;20062;-85
2022/02/18 08:18:45;;;;;;;5.63;1.00;;;11.20;99.90;;;;;;4977784;28;20483;-87
2022/02/18 08:21:12;;;;;;;4.40;0.95;;;11.30;99.90;;;;;;4995076;28;20032;-87
2022/02/18 08:23:38;;;;;;;4.28;0.88;;;11.30;99.90;;;;;;4977791;28;20058;-85
2022/02/18 08:26:04;;;;;;;7.15;1.00;;;11.40;99.90;;;;;;4995638;28;20077;-85
2022/02/18 08:28:29;;;;;;;6.85;1.05;;;11.40;99.90;;;;;;4977667;28;20023;-85
2022/02/18 08:30:55;;;;;;;4.18;0.90;;;11.40;99.90;;;;;;4977915;28;20026;-84
2022/02/18 08:33:20;;;;;;;6.80;0.77;;;11.50;99.90;;;;;;4977604;28;20026;-85
2022/02/18 08:35:46;;;;;;;3.22;0.57;;;11.60;99.90;;;;;;4977927;28;20030;-84
2022/02/18 08:38:12;;;;;;;6.10;0.73;;;11.60;99.90;;;;;;4977845;28;20057;-85
2022/02/18 08:40:38;;;;;;;5.22;0.70;;;11.70;99.90;;;;;;4977267;28;20113;-85
2022/02/18 08:43:06;;;;;;;3.88;0.70;;;11.80;99.90;;;;;;4977951;28;20034;-84
2022/02/18 08:45:32;;;;;;;2.38;0.73;;;11.80;99.90;;;;;;4977202;28;20034;-85
2022/02/18 08:47:59;;;;;;;3.97;0.50;;;11.90;99.90;;;;;;4977957;28;20026;-87
2022/02/18 08:50:25;;;;;;;2.03;0.73;;;11.90;99.90;;;;;;4976086;28;20097;-88
2022/02/18 08:52:50;;;;;;;3.15;0.40;;;12.00;99.90;;;;;;4985615;28;20525;-88
2022/02/18 08:55:17;;;;;;;2.35;0.40;;;12.00;99.90;;;;;;4987569;28;20026;-86
2022/02/18 08:57:44;;;;;;;2.30;0.43;;;12.10;99.90;;;;;;5014491;28;20026;-88
2022/02/18 09:00:11;;;;;;;0.98;0.40;;;12.10;99.90;;;;;;4996037;28;20743;-84
2022/02/18 09:02:38;;;;;;;4.13;0.60;;;12.20;99.90;;;;;;4976869;28;20030;-82
2022/02/18 09:05:05;;;;;;;1.42;0.40;;;12.30;99.90;;;;;;4977337;28;20388;-83
2022/02/18 09:07:31;;;;;;;3.35;0.50;;;12.30;99.90;;;;;;4976859;28;20076;-83
2022/02/18 09:09:58;;;;;;;3.00;0.50;;;12.40;99.90;;;;;;4977304;28;20173;-83
2022/02/18 09:12:24;;;;;;;1.65;0.30;;;12.40;99.90;;;;;;4976713;28;20383;-84
2022/02/18 09:14:50;;;;;;;1.67;0.30;;;12.50;99.90;;;;;;4977189;28;20030;-84
2022/02/18 09:17:17;;;;;;;2.55;0.43;;;12.60;99.90;;;;;;4977056;28;20058;-80
2022/02/18 09:19:42;;;;;;;1.83;0.40;;;12.70;99.90;;;;;;4994282;28;20058;-82
2022/02/18 09:22:09;;;;;;;2.22;0.50;;;12.80;99.90;;;;;;4994194;28;20046;-85
2022/02/18 09:24:35;;;;;;;1.23;0.60;;;12.80;99.90;;;;;;4994047;28;20045;-84
2022/02/18 09:27:00;;;;;;;1.55;0.43;;;12.90;99.90;;;;;;4977246;28;20026;-85
2022/02/18 09:29:26;;;;;;;3.00;0.40;;;12.90;99.90;;;;;;4993770;28;20026;-84
2022/02/18 09:31:53;;;;;;;0.43;0.30;;;13.00;99.90;;;;;;4977011;28;20113;-84
2022/02/18 09:34:25;;;;;;;3.25;0.57;;;13.00;99.90;;;;;;4976831;28;20027;-85
2022/02/18 09:36:51;;;;;;;1.98;0.30;;;13.10;99.90;;;;;;4995691;28;20464;-85
2022/02/18 09:39:17;;;;;;;0.85;0.32;;;13.10;99.90;;;;;;4994776;28;20041;-83
2022/02/18 09:41:43;;;;;;;1.35;0.30;;;13.10;99.90;;;;;;4977171;28;20034;-86
2022/02/18 09:44:12;;;;;;;1.67;0.30;;;13.20;99.90;;;;;;4995118;28;20057;-85
2022/02/18 09:46:39;;;;;;;1.58;0.40;;;13.20;99.90;;;;;;4978341;28;20234;-85
2022/02/18 09:49:05;;;;;;;1.23;0.40;;;13.20;99.90;;;;;;4978245;28;20038;-85
2022/02/18 09:51:32;;;;;;;1.35;0.30;;;13.20;99.90;;;;;;4978407;28;20053;-85
2022/02/18 09:53:58;;;;;;;6.60;1.10;;;13.20;99.90;;;;;;4995978;28;20383;-84
2022/02/18 09:56:24;;;;;;;2.63;0.40;;;13.30;99.90;;;;;;4978420;28;20030;-85
2022/02/18 09:58:52;;;;;;;0.88;0.35;;;13.30;99.90;;;;;;4977336;28;20034;-85
2022/02/18 10:01:19;;;;;;;5.25;0.40;;;13.30;99.90;;;;;;4976713;28;20034;-84
2022/02/18 10:03:45;;;;;;;1.27;0.32;;;13.30;99.90;;;;;;4977885;28;20060;-84
2022/02/18 10:06:11;;;;;;;3.13;0.35;;;13.40;99.90;;;;;;4994250;28;20023;-84
2022/02/18 10:08:47;;;;;;;1.23;0.30;;;13.40;99.90;;;;;;4998476;28;20081;-85
2022/02/18 10:11:13;;;;;;;1.73;0.50;;;13.40;99.90;;;;;;4980526;28;20034;-85
2022/02/18 10:13:41;;;;;;;1.30;0.25;;;13.50;99.90;;;;;;4980425;28;20432;-85
2022/02/18 10:16:13;;;;;;;2.50;0.55;;;13.50;99.90;;;;;;4981571;28;20030;-86
2022/02/18 10:18:53;;;;;;;1.67;0.45;;;13.60;99.90;;;;;;4982793;28;20468;-86
2022/02/18 10:21:22;;;;;;;0.80;0.28;;;13.70;99.90;;;;;;4981917;28;20212;-84
2022/02/18 10:23:48;;;;;;;3.38;0.38;;;13.70;99.90;;;;;;4982072;28;20030;-83
2022/02/18 10:26:14;;;;;;;2.55;0.50;;;13.80;99.90;;;;;;4982434;28;20710;-85
2022/02/18 10:28:40;;;;;;;2.80;0.50;;;13.90;99.90;;;;;;4980396;28;20316;-83
2022/02/18 10:31:07;;;;;;;2.25;0.40;;;14.00;99.90;;;;;;4983292;28;20062;-86
2022/02/18 10:33:36;;;;;;;0.40;0.30;;;14.20;99.90;;;;;;4982170;28;20040;-86
2022/02/18 10:36:03;;;;;;;3.63;0.75;;;14.20;99.90;;;;;;4998467;28;20025;-86
2022/02/18 10:38:34;;;;;;;2.22;0.30;;;14.30;99.90;;;;;;4981701;28;20034;-84
2022/02/18 10:41:00;;;;;;;1.05;0.30;;;14.30;99.90;;;;;;4980728;28;20026;-82
2022/02/18 10:43:27;;;;;;;2.47;0.25;;;14.40;99.90;;;;;;4979765;28;20038;-82
2022/02/18 10:46:03;;;;;;;2.47;0.30;;;14.40;99.90;;;;;;4982762;28;20030;-83
2022/02/18 10:48:34;;;;;;;0.75;0.30;;;14.60;99.90;;;;;;5000933;28;20448;-83
2022/02/18 10:51:04;;;;;;;0.77;0.32;;;14.60;99.90;;;;;;4979697;28;20027;-85
2022/02/18 10:53:36;;;;;;;3.03;0.85;;;14.70;99.70;;;;;;4996522;28;20125;-86
2022/02/18 10:56:07;;;;;;;1.75;0.50;;;14.80;99.50;;;;;;4979534;28;20038;-87
2022/02/18 10:58:34;;;;;;;;;;;14.90;99.10;;;;;;4979468;28;20463;-85
2022/02/18 11:01:09;;;;;;;2.03;0.30;;;15.00;99.20;;;;;;4979576;28;19912;-84
2022/02/18 11:03:37;;;;;;;1.98;0.38;;;15.10;98.40;;;;;;4980353;28;20065;-85
2022/02/18 11:06:12;;;;;;;1.40;0.30;;;15.10;98.50;;;;;;4980134;28;20357;-85
2022/02/18 11:08:45;;;;;;;0.93;0.30;;;15.20;98.00;;;;;;4979275;28;20022;-86
2022/02/18 11:11:11;;;;;;;0.43;0.30;;;15.30;97.90;;;;;;4979214;28;20026;-83
2022/02/18 11:13:40;;;;;;;1.50;0.20;;;15.30;98.10;;;;;;4978774;28;20029;-85
2022/02/18 11:16:16;;;;;;;1.55;0.40;;;15.40;97.90;;;;;;4980077;28;20027;-81
2022/02/18 11:18:43;;;;;;;0.82;0.30;;;15.40;97.70;;;;;;4977982;28;20477;-80
2022/02/18 11:21:11;;;;;;;2.00;0.70;;;15.40;97.70;;;;;;4978685;28;20038;-82
2022/02/18 11:23:38;;;;;;;2.15;0.38;;;15.30;97.60;;;;;;4978313;28;20150;-82
2022/02/18 11:26:04;;;;;;;2.33;0.60;;;15.30;97.70;;;;;;4978084;28;20109;-82
2022/02/18 11:28:30;;;;;;;1.33;0.30;;;15.30;97.70;;;;;;4978108;28;20049;-82
2022/02/18 11:31:06;;;;;;;1.40;0.20;;;15.30;98.00;;;;;;4978529;28;20041;-81
2022/02/18 11:34:05;;;;;;;4.53;0.40;;;15.30;97.90;;;;;;4978267;28;20030;-80
2022/02/18 11:37:07;;;;;;;2.60;0.40;;;15.30;97.90;;;;;;4964880;28;20027;-81
2022/02/18 11:40:10;;;;;;;2.92;0.40;;;15.30;98.00;;;;;;4977754;28;20088;-79
2022/02/18 11:42:57;;;;;;;6.00;0.60;;;15.40;97.60;;;;;;4977573;28;20077;-80
2022/02/18 11:45:24;;;;;;;1.38;0.30;;;15.40;97.60;;;;;;4970647;28;20396;-81
2022/02/18 11:47:50;;;;;;;2.47;0.25;;;15.50;97.50;;;;;;4977998;28;20069;-83
2022/02/18 11:50:19;;;;;;;1.95;0.30;;;15.50;97.10;;;;;;4977899;28;20030;-85
2022/02/18 11:52:47;;;;;;;2.33;0.40;;;15.50;97.20;;;;;;4977166;28;20046;-84
2022/02/18 11:55:35;;;;;;;0.75;0.30;;;15.60;96.80;;;;;;4978253;28;20591;-85
2022/02/18 11:58:16;;;;;;;1.38;0.30;;;15.80;96.30;;;;;;4978494;28;20026;-85
2022/02/18 12:00:44;;;;;;;1.65;0.30;;;15.80;96.20;;;;;;4995062;28;20316;-84
2022/02/18 12:03:11;;;;;;;4.53;0.47;;;15.80;96.50;;;;;;4977966;28;20487;-84
2022/02/18 12:06:09;;;;;;;1.15;0.40;;;15.80;96.40;;;;;;4995026;28;20109;-84
2022/02/18 12:08:36;;;;;;;0.52;0.30;;;15.80;96.50;;;;;;4963978;28;20026;-84
2022/02/18 12:11:22;;;;;;;4.43;0.40;;;15.80;96.40;;;;;;4977993;28;20026;-85
2022/02/18 12:13:53;;;;;;;1.17;0.50;;;15.70;96.50;;;;;;4977879;28;20073;-84
2022/02/18 12:16:21;;;;;;;4.32;0.57;;;15.70;96.70;;;;;;4962085;28;20392;-84
2022/02/18 12:19:06;;;;;;;0.60;0.28;;;15.60;96.80;;;;;;4976931;28;20042;-84
2022/02/18 12:21:32;;;;;;;2.55;0.28;;;15.60;97.10;;;;;;4977047;28;20072;-84
2022/02/18 12:24:33;;;;;;;1.92;0.30;;;15.50;97.10;;;;;;4977766;28;20036;-85
2022/02/18 12:27:23;;;;;;;1.08;0.30;;;15.50;97.30;;;;;;4977675;28;20361;-84
2022/02/18 12:29:51;;;;;;;1.13;0.38;;;15.50;97.70;;;;;;4976566;28;20022;-78
2022/02/18 12:32:17;;;;;;;2.15;0.40;;;15.60;97.40;;;;;;4977368;28;20041;-79
2022/02/18 12:34:43;;;;;;;2.50;0.85;;;15.50;97.40;;;;;;4976606;28;20034;-81
2022/02/18 12:37:12;;;;;;;1.63;0.50;;;15.50;97.60;;;;;;4977447;28;20030;-82
2022/02/18 12:39:38;;;;;;;3.30;0.57;;;15.50;97.50;;;;;;4976522;28;20030;-81
2022/02/18 12:42:08;;;;;;;3.45;0.52;;;15.60;97.70;;;;;;4977136;28;20038;-82
2022/02/18 12:44:34;;;;;;;1.42;0.47;;;15.60;97.80;;;;;;4992415;28;20038;-82